sensor_id;sensor_type;location;lat;lon;timestamp;P1;durP1;ratioP1;P2;durP2;ratioP2
48881;SDS011;57063;51.406;-2.402;2023-05-07T00:00:31;3.13;;;0.90;;
48881;SDS011;57063;51.406;-2.402;2023-05-07T00:02:58;2.03;;;1.00;;
48881;SDS011;57063;51.406;-2.402;2023-05-07T00:05:23;1.67;;;1.00;;
48881;SDS011;57063;51.406;-2.402;2023-05-07T00:07:49;2.38;;;0.93;;
48881;SDS011;57063;51.406;-2.402;2023-05-07T00:10:15;2.78;;;1.20;;
48881;SDS011;57063;51.406;-2.402;2023-05-07T00:12:40;3.50;;;1.30;;
48881;SDS011;57063;51.406;-2.402;2023-05-07T00:15:06;2.47;;;1.00;;
48881;SDS011;57063;51.406;-2.402;2023-05-07T00:17:32;3.03;;;1.50;;
48881;SDS011;57063;51.406;-2.402;2023-05-07T00:19:57;1.88;;;0.90;;
48881;SDS011;57063;51.406;-2.402;2023-05-07T00:22:23;2.90;;;1.07;;
48881;SDS011;57063;51.406;-2.402;2023-05-07T00:24:48;2.77;;;1.10;;
48881;SDS011;57063;51.406;-2.402;2023-05-07T00:27:13;2.90;;;1.13;;
48881;SDS011;57063;51.406;-2.402;2023-05-07T00:29:38;2.60;;;0.90;;
48881;SDS011;57063;51.406;-2.402;2023-05-07T00:32:04;2.13;;;1.00;;
48881;SDS011;57063;51.406;-2.402;2023-05-07T00:34:29;1.90;;;1.05;;
48881;SDS011;57063;51.406;-2.402;2023-05-07T00:36:55;2.47;;;1.15;;
48881;SDS011;57063;51.406;-2.402;2023-05-07T00:39:20;2.30;;;1.03;;
48881;SDS011;57063;51.406;-2.402;2023-05-07T00:41:45;3.70;;;1.20;;
48881;SDS011;57063;51.406;-2.402;2023-05-07T00:44:11;2.63;;;1.27;;
48881;SDS011;57063;51.406;-2.402;2023-05-07T00:46:36;2.87;;;1.30;;
48881;SDS011;57063;51.406;-2.402;2023-05-07T00:49:01;3.53;;;1.00;;
48881;SDS011;57063;51.406;-2.402;2023-05-07T00:51:26;3.50;;;1.33;;
48881;SDS011;57063;51.406;-2.402;2023-05-07T00:53:52;2.25;;;1.20;;
48881;SDS011;57063;51.406;-2.402;2023-05-07T00:56:18;2.75;;;1.30;;
48881;SDS011;57063;51.406;-2.402;2023-05-07T00:58:43;2.83;;;1.10;;
48881;SDS011;57063;51.406;-2.402;2023-05-07T01:01:09;3.70;;;1.45;;
48881;SDS011;57063;51.406;-2.402;2023-05-07T01:03:34;1.67;;;1.30;;
48881;SDS011;57063;51.406;-2.402;2023-05-07T01:06:00;2.80;;;1.20;;
48881;SDS011;57063;51.406;-2.402;2023-05-07T01:08:26;2.75;;;1.20;;
48881;SDS011;57063;51.406;-2.402;2023-05-07T01:10:54;3.92;;;1.65;;
48881;SDS011;57063;51.406;-2.402;2023-05-07T01:13:20;3.13;;;1.60;;
48881;SDS011;57063;51.406;-2.402;2023-05-07T01:15:45;3.45;;;1.33;;
48881;SDS011;57063;51.406;-2.402;2023-05-07T01:18:10;3.30;;;1.13;;
48881;SDS011;57063;51.406;-2.402;2023-05-07T01:20:36;3.42;;;1.15;;
48881;SDS011;57063;51.406;-2.402;2023-05-07T01:23:01;3.53;;;1.52;;
48881;SDS011;57063;51.406;-2.402;2023-05-07T01:25:28;2.45;;;1.40;;
48881;SDS011;57063;51.406;-2.402;2023-05-07T01:27:53;3.22;;;1.42;;
48881;SDS011;57063;51.406;-2.402;2023-05-07T01:30:18;2.53;;;1.50;;
48881;SDS011;57063;51.406;-2.402;2023-05-07T01:35:24;2.15;;;1.50;;
48881;SDS011;57063;51.406;-2.402;2023-05-07T01:37:51;2.88;;;1.52;;
48881;SDS011;57063;51.406;-2.402;2023-05-07T01:40:17;3.92;;;1.42;;
48881;SDS011;57063;51.406;-2.402;2023-05-07T01:42:42;2.45;;;1.58;;
48881;SDS011;57063;51.406;-2.402;2023-05-07T01:45:08;2.47;;;1.55;;
48881;SDS011;57063;51.406;-2.402;2023-05-07T01:47:33;4.07;;;1.50;;
48881;SDS011;57063;51.406;-2.402;2023-05-07T01:49:58;2.27;;;1.67;;
48881;SDS011;57063;51.406;-2.402;2023-05-07T01:52:24;2.10;;;1.42;;
48881;SDS011;57063;51.406;-2.402;2023-05-07T01:54:50;2.72;;;1.30;;
48881;SDS011;57063;51.406;-2.402;2023-05-07T01:57:15;2.92;;;1.60;;
48881;SDS011;57063;51.406;-2.402;2023-05-07T01:59:40;2.83;;;1.50;;
48881;SDS011;57063;51.406;-2.402;2023-05-07T02:02:05;3.83;;;1.80;;
48881;SDS011;57063;51.406;-2.402;2023-05-07T02:04:31;2.23;;;1.30;;
48881;SDS011;57063;51.406;-2.402;2023-05-07T02:06:56;2.70;;;1.77;;
48881;SDS011;57063;51.406;-2.402;2023-05-07T02:09:21;2.97;;;1.70;;
48881;SDS011;57063;51.406;-2.402;2023-05-07T02:11:47;1.95;;;1.42;;
48881;SDS011;57063;51.406;-2.402;2023-05-07T02:14:13;3.00;;;1.80;;
48881;SDS011;57063;51.406;-2.402;2023-05-07T02:16:38;2.13;;;1.30;;
48881;SDS011;57063;51.406;-2.402;2023-05-07T02:19:03;2.83;;;1.80;;
48881;SDS011;57063;51.406;-2.402;2023-05-07T02:21:28;3.33;;;1.90;;
48881;SDS011;57063;51.406;-2.402;2023-05-07T02:23:53;4.30;;;2.00;;
48881;SDS011;57063;51.406;-2.402;2023-05-07T02:26:19;2.78;;;1.83;;
48881;SDS011;57063;51.406;-2.402;2023-05-07T02:28:44;2.30;;;1.70;;
48881;SDS011;57063;51.406;-2.402;2023-05-07T02:31:09;3.00;;;1.70;;
48881;SDS011;57063;51.406;-2.402;2023-05-07T02:33:34;4.23;;;2.10;;
48881;SDS011;57063;51.406;-2.402;2023-05-07T02:36:09;3.22;;;1.75;;
48881;SDS011;57063;51.406;-2.402;2023-05-07T02:38:34;3.03;;;1.67;;
48881;SDS011;57063;51.406;-2.402;2023-05-07T02:41:00;2.72;;;1.50;;
48881;SDS011;57063;51.406;-2.402;2023-05-07T02:43:25;3.60;;;1.90;;
48881;SDS011;57063;51.406;-2.402;2023-05-07T02:45:59;4.30;;;2.10;;
48881;SDS011;57063;51.406;-2.402;2023-05-07T02:48:25;5.43;;;2.22;;
48881;SDS011;57063;51.406;-2.402;2023-05-07T02:50:50;4.57;;;1.90;;
48881;SDS011;57063;51.406;-2.402;2023-05-07T02:53:15;3.10;;;2.00;;
48881;SDS011;57063;51.406;-2.402;2023-05-07T02:55:40;2.53;;;1.93;;
48881;SDS011;57063;51.406;-2.402;2023-05-07T02:58:05;3.03;;;2.10;;
48881;SDS011;57063;51.406;-2.402;2023-05-07T03:00:31;3.20;;;1.80;;
48881;SDS011;57063;51.406;-2.402;2023-05-07T03:02:56;3.87;;;1.93;;
48881;SDS011;57063;51.406;-2.402;2023-05-07T03:05:21;2.07;;;1.80;;
48881;SDS011;57063;51.406;-2.402;2023-05-07T03:07:46;4.20;;;2.20;;
48881;SDS011;57063;51.406;-2.402;2023-05-07T03:10:12;3.15;;;1.92;;
48881;SDS011;57063;51.406;-2.402;2023-05-07T03:12:37;2.42;;;1.70;;
48881;SDS011;57063;51.406;-2.402;2023-05-07T03:15:03;2.80;;;1.87;;
48881;SDS011;57063;51.406;-2.402;2023-05-07T03:17:28;4.38;;;2.05;;
48881;SDS011;57063;51.406;-2.402;2023-05-07T03:19:53;2.85;;;1.80;;
48881;SDS011;57063;51.406;-2.402;2023-05-07T03:22:18;2.33;;;1.63;;
48881;SDS011;57063;51.406;-2.402;2023-05-07T03:24:44;3.08;;;1.63;;
48881;SDS011;57063;51.406;-2.402;2023-05-07T03:27:09;3.03;;;1.63;;
48881;SDS011;57063;51.406;-2.402;2023-05-07T03:29:34;3.58;;;2.00;;
48881;SDS011;57063;51.406;-2.402;2023-05-07T03:32:00;4.85;;;2.10;;
48881;SDS011;57063;51.406;-2.402;2023-05-07T03:34:25;2.72;;;1.92;;
48881;SDS011;57063;51.406;-2.402;2023-05-07T03:36:51;2.03;;;1.83;;
48881;SDS011;57063;51.406;-2.402;2023-05-07T03:39:16;2.55;;;1.75;;
48881;SDS011;57063;51.406;-2.402;2023-05-07T03:41:41;2.37;;;1.93;;
48881;SDS011;57063;51.406;-2.402;2023-05-07T03:44:06;2.72;;;2.10;;
48881;SDS011;57063;51.406;-2.402;2023-05-07T03:46:32;2.63;;;2.10;;
48881;SDS011;57063;51.406;-2.402;2023-05-07T03:48:57;3.15;;;2.13;;
48881;SDS011;57063;51.406;-2.402;2023-05-07T03:51:23;2.85;;;2.13;;
48881;SDS011;57063;51.406;-2.402;2023-05-07T03:53:48;2.00;;;1.73;;
48881;SDS011;57063;51.406;-2.402;2023-05-07T03:56:13;2.40;;;1.60;;
48881;SDS011;57063;51.406;-2.402;2023-05-07T03:58:38;3.42;;;2.15;;
48881;SDS011;57063;51.406;-2.402;2023-05-07T04:01:04;3.72;;;1.85;;
48881;SDS011;57063;51.406;-2.402;2023-05-07T04:03:29;2.30;;;1.85;;
48881;SDS011;57063;51.406;-2.402;2023-05-07T04:05:54;2.40;;;1.95;;
48881;SDS011;57063;51.406;-2.402;2023-05-07T04:08:19;2.97;;;2.08;;
48881;SDS011;57063;51.406;-2.402;2023-05-07T04:10:45;3.67;;;1.90;;
48881;SDS011;57063;51.406;-2.402;2023-05-07T04:13:10;2.72;;;2.00;;
48881;SDS011;57063;51.406;-2.402;2023-05-07T04:15:36;2.73;;;2.00;;
48881;SDS011;57063;51.406;-2.402;2023-05-07T04:18:01;2.10;;;1.83;;
48881;SDS011;57063;51.406;-2.402;2023-05-07T04:20:26;2.60;;;2.08;;
48881;SDS011;57063;51.406;-2.402;2023-05-07T04:22:51;2.73;;;2.20;;
48881;SDS011;57063;51.406;-2.402;2023-05-07T04:25:17;2.50;;;2.08;;
48881;SDS011;57063;51.406;-2.402;2023-05-07T04:27:42;3.33;;;2.10;;
48881;SDS011;57063;51.406;-2.402;2023-05-07T04:30:07;2.60;;;1.90;;
48881;SDS011;57063;51.406;-2.402;2023-05-07T04:32:33;3.05;;;2.05;;
48881;SDS011;57063;51.406;-2.402;2023-05-07T04:34:58;3.23;;;2.13;;
48881;SDS011;57063;51.406;-2.402;2023-05-07T04:37:25;2.50;;;1.83;;
48881;SDS011;57063;51.406;-2.402;2023-05-07T04:39:50;4.03;;;2.10;;
48881;SDS011;57063;51.406;-2.402;2023-05-07T04:42:16;2.95;;;2.20;;
48881;SDS011;57063;51.406;-2.402;2023-05-07T04:44:41;2.70;;;1.90;;
48881;SDS011;57063;51.406;-2.402;2023-05-07T04:47:07;4.27;;;2.30;;
48881;SDS011;57063;51.406;-2.402;2023-05-07T04:49:32;5.25;;;2.47;;
48881;SDS011;57063;51.406;-2.402;2023-05-07T04:51:57;2.53;;;2.30;;
48881;SDS011;57063;51.406;-2.402;2023-05-07T04:54:22;2.47;;;2.10;;
48881;SDS011;57063;51.406;-2.402;2023-05-07T04:56:47;2.50;;;2.10;;
48881;SDS011;57063;51.406;-2.402;2023-05-07T04:59:13;3.60;;;2.33;;
48881;SDS011;57063;51.406;-2.402;2023-05-07T05:01:38;3.27;;;2.33;;
48881;SDS011;57063;51.406;-2.402;2023-05-07T05:04:03;3.97;;;2.10;;
48881;SDS011;57063;51.406;-2.402;2023-05-07T05:06:28;5.23;;;3.30;;
48881;SDS011;57063;51.406;-2.402;2023-05-07T05:08:53;4.67;;;2.30;;
48881;SDS011;57063;51.406;-2.402;2023-05-07T05:11:19;3.10;;;2.22;;
48881;SDS011;57063;51.406;-2.402;2023-05-07T05:13:44;3.43;;;2.27;;
48881;SDS011;57063;51.406;-2.402;2023-05-07T05:16:09;3.55;;;2.40;;
48881;SDS011;57063;51.406;-2.402;2023-05-07T05:18:34;4.17;;;2.53;;
48881;SDS011;57063;51.406;-2.402;2023-05-07T05:21:00;2.55;;;2.33;;
48881;SDS011;57063;51.406;-2.402;2023-05-07T05:23:25;3.08;;;2.45;;
48881;SDS011;57063;51.406;-2.402;2023-05-07T05:25:54;3.17;;;2.50;;
48881;SDS011;57063;51.406;-2.402;2023-05-07T05:28:20;4.03;;;2.60;;
48881;SDS011;57063;51.406;-2.402;2023-05-07T05:30:45;4.37;;;2.80;;
48881;SDS011;57063;51.406;-2.402;2023-05-07T05:33:10;3.13;;;2.30;;
48881;SDS011;57063;51.406;-2.402;2023-05-07T05:35:35;3.47;;;2.43;;
48881;SDS011;57063;51.406;-2.402;2023-05-07T05:38:00;3.53;;;2.83;;
48881;SDS011;57063;51.406;-2.402;2023-05-07T05:40:26;4.95;;;3.33;;
48881;SDS011;57063;51.406;-2.402;2023-05-07T05:42:51;4.53;;;3.03;;
48881;SDS011;57063;51.406;-2.402;2023-05-07T05:45:16;4.03;;;2.80;;
48881;SDS011;57063;51.406;-2.402;2023-05-07T05:47:42;3.85;;;2.83;;
48881;SDS011;57063;51.406;-2.402;2023-05-07T05:50:07;4.15;;;2.63;;
48881;SDS011;57063;51.406;-2.402;2023-05-07T05:52:33;4.88;;;3.22;;
48881;SDS011;57063;51.406;-2.402;2023-05-07T05:54:58;4.77;;;2.93;;
48881;SDS011;57063;51.406;-2.402;2023-05-07T05:57:23;4.87;;;3.07;;
48881;SDS011;57063;51.406;-2.402;2023-05-07T05:59:48;3.50;;;2.27;;
48881;SDS011;57063;51.406;-2.402;2023-05-07T06:02:14;4.63;;;2.90;;
48881;SDS011;57063;51.406;-2.402;2023-05-07T06:04:39;4.85;;;2.78;;
48881;SDS011;57063;51.406;-2.402;2023-05-07T06:07:04;3.63;;;2.67;;
48881;SDS011;57063;51.406;-2.402;2023-05-07T06:09:30;3.88;;;2.75;;
48881;SDS011;57063;51.406;-2.402;2023-05-07T06:11:55;3.70;;;2.50;;
48881;SDS011;57063;51.406;-2.402;2023-05-07T06:14:20;4.65;;;3.00;;
48881;SDS011;57063;51.406;-2.402;2023-05-07T06:16:45;5.10;;;3.33;;
48881;SDS011;57063;51.406;-2.402;2023-05-07T06:19:11;4.18;;;3.13;;
48881;SDS011;57063;51.406;-2.402;2023-05-07T06:21:36;3.90;;;2.90;;
48881;SDS011;57063;51.406;-2.402;2023-05-07T06:24:01;4.30;;;2.77;;
48881;SDS011;57063;51.406;-2.402;2023-05-07T06:26:26;3.45;;;2.92;;
48881;SDS011;57063;51.406;-2.402;2023-05-07T06:28:51;4.27;;;3.10;;
48881;SDS011;57063;51.406;-2.402;2023-05-07T06:31:18;4.67;;;3.10;;
48881;SDS011;57063;51.406;-2.402;2023-05-07T06:33:45;3.90;;;2.58;;
48881;SDS011;57063;51.406;-2.402;2023-05-07T06:36:11;3.58;;;2.65;;
48881;SDS011;57063;51.406;-2.402;2023-05-07T06:38:36;4.07;;;3.17;;
48881;SDS011;57063;51.406;-2.402;2023-05-07T06:41:01;3.90;;;2.90;;
48881;SDS011;57063;51.406;-2.402;2023-05-07T06:43:26;3.10;;;2.80;;
48881;SDS011;57063;51.406;-2.402;2023-05-07T06:45:51;3.63;;;2.67;;
48881;SDS011;57063;51.406;-2.402;2023-05-07T06:48:17;3.88;;;2.92;;
48881;SDS011;57063;51.406;-2.402;2023-05-07T06:50:42;3.83;;;2.83;;
48881;SDS011;57063;51.406;-2.402;2023-05-07T06:53:07;4.57;;;3.13;;
48881;SDS011;57063;51.406;-2.402;2023-05-07T06:55:32;3.13;;;2.40;;
48881;SDS011;57063;51.406;-2.402;2023-05-07T06:57:57;3.97;;;2.65;;
48881;SDS011;57063;51.406;-2.402;2023-05-07T07:00:25;5.13;;;3.42;;
48881;SDS011;57063;51.406;-2.402;2023-05-07T07:02:51;3.33;;;2.47;;
48881;SDS011;57063;51.406;-2.402;2023-05-07T07:05:16;3.87;;;2.83;;
48881;SDS011;57063;51.406;-2.402;2023-05-07T07:07:41;3.22;;;2.38;;
48881;SDS011;57063;51.406;-2.402;2023-05-07T07:10:06;4.30;;;3.13;;
48881;SDS011;57063;51.406;-2.402;2023-05-07T07:12:32;4.32;;;2.40;;
48881;SDS011;57063;51.406;-2.402;2023-05-07T07:14:57;3.53;;;2.60;;
48881;SDS011;57063;51.406;-2.402;2023-05-07T07:17:22;3.47;;;2.90;;
48881;SDS011;57063;51.406;-2.402;2023-05-07T07:19:47;4.00;;;2.77;;
48881;SDS011;57063;51.406;-2.402;2023-05-07T07:22:13;4.47;;;2.60;;
48881;SDS011;57063;51.406;-2.402;2023-05-07T07:24:38;5.47;;;2.37;;
48881;SDS011;57063;51.406;-2.402;2023-05-07T07:27:03;5.03;;;2.77;;
48881;SDS011;57063;51.406;-2.402;2023-05-07T07:29:28;3.53;;;2.57;;
48881;SDS011;57063;51.406;-2.402;2023-05-07T07:31:53;4.20;;;2.27;;
48881;SDS011;57063;51.406;-2.402;2023-05-07T07:34:19;4.50;;;2.53;;
48881;SDS011;57063;51.406;-2.402;2023-05-07T07:36:44;6.57;;;2.67;;
48881;SDS011;57063;51.406;-2.402;2023-05-07T07:39:09;3.03;;;2.55;;
48881;SDS011;57063;51.406;-2.402;2023-05-07T07:41:35;4.30;;;2.95;;
48881;SDS011;57063;51.406;-2.402;2023-05-07T07:44:00;4.63;;;2.47;;
48881;SDS011;57063;51.406;-2.402;2023-05-07T07:46:25;4.23;;;2.73;;
48881;SDS011;57063;51.406;-2.402;2023-05-07T07:48:51;5.28;;;2.47;;
48881;SDS011;57063;51.406;-2.402;2023-05-07T07:51:16;6.68;;;2.58;;
48881;SDS011;57063;51.406;-2.402;2023-05-07T07:53:42;4.27;;;2.40;;
48881;SDS011;57063;51.406;-2.402;2023-05-07T07:56:07;10.32;;;2.78;;
48881;SDS011;57063;51.406;-2.402;2023-05-07T07:58:32;10.63;;;4.80;;
48881;SDS011;57063;51.406;-2.402;2023-05-07T08:00:57;6.70;;;3.72;;
48881;SDS011;57063;51.406;-2.402;2023-05-07T08:03:23;7.93;;;2.97;;
48881;SDS011;57063;51.406;-2.402;2023-05-07T08:05:48;11.02;;;3.28;;
48881;SDS011;57063;51.406;-2.402;2023-05-07T08:08:16;6.82;;;3.35;;
48881;SDS011;57063;51.406;-2.402;2023-05-07T08:10:41;8.95;;;2.75;;
48881;SDS011;57063;51.406;-2.402;2023-05-07T08:13:06;10.75;;;3.47;;
48881;SDS011;57063;51.406;-2.402;2023-05-07T08:15:31;8.18;;;3.40;;
48881;SDS011;57063;51.406;-2.402;2023-05-07T08:17:57;6.93;;;3.30;;
48881;SDS011;57063;51.406;-2.402;2023-05-07T08:20:23;6.53;;;2.97;;
48881;SDS011;57063;51.406;-2.402;2023-05-07T08:22:48;6.45;;;3.22;;
48881;SDS011;57063;51.406;-2.402;2023-05-07T08:25:13;5.28;;;3.00;;
48881;SDS011;57063;51.406;-2.402;2023-05-07T08:27:38;7.93;;;3.07;;
48881;SDS011;57063;51.406;-2.402;2023-05-07T08:30:04;9.38;;;3.88;;
48881;SDS011;57063;51.406;-2.402;2023-05-07T08:32:29;11.55;;;4.72;;
48881;SDS011;57063;51.406;-2.402;2023-05-07T08:34:54;15.00;;;4.87;;
48881;SDS011;57063;51.406;-2.402;2023-05-07T08:37:20;8.93;;;4.32;;
48881;SDS011;57063;51.406;-2.402;2023-05-07T08:39:45;6.20;;;3.97;;
48881;SDS011;57063;51.406;-2.402;2023-05-07T08:42:11;10.73;;;4.43;;
48881;SDS011;57063;51.406;-2.402;2023-05-07T08:44:37;12.65;;;4.68;;
48881;SDS011;57063;51.406;-2.402;2023-05-07T08:47:03;8.70;;;4.30;;
48881;SDS011;57063;51.406;-2.402;2023-05-07T08:49:30;10.55;;;4.20;;
48881;SDS011;57063;51.406;-2.402;2023-05-07T08:51:55;13.57;;;3.67;;
48881;SDS011;57063;51.406;-2.402;2023-05-07T08:54:21;10.73;;;3.47;;
48881;SDS011;57063;51.406;-2.402;2023-05-07T08:56:46;6.45;;;3.22;;
48881;SDS011;57063;51.406;-2.402;2023-05-07T08:59:12;7.80;;;3.17;;
48881;SDS011;57063;51.406;-2.402;2023-05-07T09:01:37;6.53;;;3.10;;
48881;SDS011;57063;51.406;-2.402;2023-05-07T09:04:03;7.10;;;3.20;;
48881;SDS011;57063;51.406;-2.402;2023-05-07T09:06:29;4.63;;;2.20;;
48881;SDS011;57063;51.406;-2.402;2023-05-07T09:08:54;9.88;;;3.08;;
48881;SDS011;57063;51.406;-2.402;2023-05-07T09:11:20;10.27;;;2.72;;
48881;SDS011;57063;51.406;-2.402;2023-05-07T09:13:46;13.05;;;2.67;;
48881;SDS011;57063;51.406;-2.402;2023-05-07T09:16:12;7.93;;;2.50;;
48881;SDS011;57063;51.406;-2.402;2023-05-07T09:18:40;7.50;;;2.08;;
48881;SDS011;57063;51.406;-2.402;2023-05-07T09:21:06;7.88;;;2.33;;
48881;SDS011;57063;51.406;-2.402;2023-05-07T09:23:34;7.10;;;2.83;;
48881;SDS011;57063;51.406;-2.402;2023-05-07T09:26:00;8.10;;;2.90;;
48881;SDS011;57063;51.406;-2.402;2023-05-07T09:28:25;10.77;;;3.33;;
48881;SDS011;57063;51.406;-2.402;2023-05-07T09:30:50;9.38;;;4.50;;
48881;SDS011;57063;51.406;-2.402;2023-05-07T09:33:15;6.83;;;4.07;;
48881;SDS011;57063;51.406;-2.402;2023-05-07T09:35:41;14.25;;;5.28;;
48881;SDS011;57063;51.406;-2.402;2023-05-07T09:38:06;15.18;;;5.63;;
48881;SDS011;57063;51.406;-2.402;2023-05-07T09:40:32;10.40;;;6.30;;
48881;SDS011;57063;51.406;-2.402;2023-05-07T09:43:08;14.10;;;6.33;;
48881;SDS011;57063;51.406;-2.402;2023-05-07T09:45:33;12.25;;;7.20;;
48881;SDS011;57063;51.406;-2.402;2023-05-07T09:47:59;14.17;;;8.97;;
48881;SDS011;57063;51.406;-2.402;2023-05-07T09:50:28;15.02;;;10.10;;
48881;SDS011;57063;51.406;-2.402;2023-05-07T09:52:55;16.17;;;10.68;;
48881;SDS011;57063;51.406;-2.402;2023-05-07T09:55:21;18.52;;;11.85;;
48881;SDS011;57063;51.406;-2.402;2023-05-07T09:57:48;26.27;;;13.13;;
48881;SDS011;57063;51.406;-2.402;2023-05-07T10:00:13;15.00;;;11.10;;
48881;SDS011;57063;51.406;-2.402;2023-05-07T10:02:40;14.75;;;10.88;;
48881;SDS011;57063;51.406;-2.402;2023-05-07T10:05:12;14.73;;;10.93;;
48881;SDS011;57063;51.406;-2.402;2023-05-07T10:07:37;17.13;;;11.90;;
48881;SDS011;57063;51.406;-2.402;2023-05-07T10:10:03;21.42;;;13.15;;
48881;SDS011;57063;51.406;-2.402;2023-05-07T10:12:29;20.15;;;12.13;;
48881;SDS011;57063;51.406;-2.402;2023-05-07T10:14:55;19.02;;;12.68;;
48881;SDS011;57063;51.406;-2.402;2023-05-07T10:17:21;21.70;;;13.63;;
48881;SDS011;57063;51.406;-2.402;2023-05-07T10:19:48;15.63;;;11.20;;
48881;SDS011;57063;51.406;-2.402;2023-05-07T10:22:14;18.85;;;12.15;;
48881;SDS011;57063;51.406;-2.402;2023-05-07T10:24:40;16.77;;;12.75;;
48881;SDS011;57063;51.406;-2.402;2023-05-07T10:27:09;24.15;;;11.98;;
48881;SDS011;57063;51.406;-2.402;2023-05-07T10:29:37;17.85;;;12.05;;
48881;SDS011;57063;51.406;-2.402;2023-05-07T10:32:16;16.48;;;10.98;;
48881;SDS011;57063;51.406;-2.402;2023-05-07T10:34:44;18.33;;;11.05;;
48881;SDS011;57063;51.406;-2.402;2023-05-07T10:37:10;17.10;;;11.88;;
48881;SDS011;57063;51.406;-2.402;2023-05-07T10:39:36;15.13;;;10.50;;
48881;SDS011;57063;51.406;-2.402;2023-05-07T10:42:11;18.23;;;11.15;;
48881;SDS011;57063;51.406;-2.402;2023-05-07T10:44:36;17.27;;;11.02;;
48881;SDS011;57063;51.406;-2.402;2023-05-07T10:47:06;15.85;;;10.50;;
48881;SDS011;57063;51.406;-2.402;2023-05-07T10:49:33;14.88;;;10.07;;
48881;SDS011;57063;51.406;-2.402;2023-05-07T10:52:15;14.77;;;10.77;;
48881;SDS011;57063;51.406;-2.402;2023-05-07T10:54:41;15.15;;;9.82;;
48881;SDS011;57063;51.406;-2.402;2023-05-07T10:59:50;13.50;;;9.23;;
48881;SDS011;57063;51.406;-2.402;2023-05-07T11:02:16;18.35;;;9.02;;
48881;SDS011;57063;51.406;-2.402;2023-05-07T11:04:42;12.77;;;8.38;;
48881;SDS011;57063;51.406;-2.402;2023-05-07T11:12:18;9.13;;;4.88;;
48881;SDS011;57063;51.406;-2.402;2023-05-07T11:15:09;11.95;;;4.82;;
48881;SDS011;57063;51.406;-2.402;2023-05-07T11:17:34;13.13;;;4.70;;
48881;SDS011;57063;51.406;-2.402;2023-05-07T11:20:01;31.67;;;6.13;;
48881;SDS011;57063;51.406;-2.402;2023-05-07T11:25:06;18.73;;;5.55;;
48881;SDS011;57063;51.406;-2.402;2023-05-07T11:27:32;14.05;;;4.72;;
48881;SDS011;57063;51.406;-2.402;2023-05-07T11:29:57;13.63;;;5.10;;
48881;SDS011;57063;51.406;-2.402;2023-05-07T11:32:23;9.77;;;5.00;;
48881;SDS011;57063;51.406;-2.402;2023-05-07T11:34:52;10.55;;;5.13;;
48881;SDS011;57063;51.406;-2.402;2023-05-07T11:37:17;12.23;;;5.93;;
48881;SDS011;57063;51.406;-2.402;2023-05-07T11:39:43;11.45;;;5.35;;
48881;SDS011;57063;51.406;-2.402;2023-05-07T11:42:24;12.23;;;5.27;;
48881;SDS011;57063;51.406;-2.402;2023-05-07T11:44:50;11.15;;;5.50;;
48881;SDS011;57063;51.406;-2.402;2023-05-07T11:47:19;8.70;;;4.93;;
48881;SDS011;57063;51.406;-2.402;2023-05-07T11:49:47;9.60;;;5.32;;
48881;SDS011;57063;51.406;-2.402;2023-05-07T11:52:13;9.32;;;5.50;;
48881;SDS011;57063;51.406;-2.402;2023-05-07T11:54:38;10.85;;;5.32;;
48881;SDS011;57063;51.406;-2.402;2023-05-07T11:57:03;7.57;;;5.10;;
48881;SDS011;57063;51.406;-2.402;2023-05-07T11:59:29;8.45;;;5.05;;
48881;SDS011;57063;51.406;-2.402;2023-05-07T12:01:57;10.80;;;5.10;;
48881;SDS011;57063;51.406;-2.402;2023-05-07T12:04:23;11.13;;;5.18;;
48881;SDS011;57063;51.406;-2.402;2023-05-07T12:06:53;7.68;;;4.80;;
48881;SDS011;57063;51.406;-2.402;2023-05-07T12:09:18;9.68;;;6.05;;
48881;SDS011;57063;51.406;-2.402;2023-05-07T12:11:45;10.48;;;5.53;;
48881;SDS011;57063;51.406;-2.402;2023-05-07T12:14:11;8.40;;;5.13;;
48881;SDS011;57063;51.406;-2.402;2023-05-07T12:16:36;7.63;;;4.63;;
48881;SDS011;57063;51.406;-2.402;2023-05-07T12:19:01;9.53;;;5.53;;
48881;SDS011;57063;51.406;-2.402;2023-05-07T12:21:26;8.18;;;5.32;;
48881;SDS011;57063;51.406;-2.402;2023-05-07T12:23:52;6.55;;;4.25;;
48881;SDS011;57063;51.406;-2.402;2023-05-07T12:26:18;8.65;;;4.85;;
48881;SDS011;57063;51.406;-2.402;2023-05-07T12:28:44;12.43;;;4.88;;
48881;SDS011;57063;51.406;-2.402;2023-05-07T12:31:09;7.43;;;4.75;;
48881;SDS011;57063;51.406;-2.402;2023-05-07T12:33:35;9.10;;;5.55;;
48881;SDS011;57063;51.406;-2.402;2023-05-07T12:36:02;8.80;;;6.10;;
48881;SDS011;57063;51.406;-2.402;2023-05-07T12:38:32;13.40;;;5.70;;
48881;SDS011;57063;51.406;-2.402;2023-05-07T12:40:59;8.48;;;5.95;;
48881;SDS011;57063;51.406;-2.402;2023-05-07T12:43:24;11.10;;;6.22;;
48881;SDS011;57063;51.406;-2.402;2023-05-07T12:45:50;12.45;;;6.57;;
48881;SDS011;57063;51.406;-2.402;2023-05-07T12:48:16;10.40;;;6.13;;
48881;SDS011;57063;51.406;-2.402;2023-05-07T12:50:41;11.70;;;6.72;;
48881;SDS011;57063;51.406;-2.402;2023-05-07T12:53:08;10.82;;;6.38;;
48881;SDS011;57063;51.406;-2.402;2023-05-07T12:55:41;11.95;;;6.47;;
48881;SDS011;57063;51.406;-2.402;2023-05-07T12:58:06;10.20;;;6.32;;
48881;SDS011;57063;51.406;-2.402;2023-05-07T13:00:32;11.07;;;6.57;;
48881;SDS011;57063;51.406;-2.402;2023-05-07T13:02:58;9.13;;;5.63;;
48881;SDS011;57063;51.406;-2.402;2023-05-07T13:05:23;8.50;;;4.88;;
48881;SDS011;57063;51.406;-2.402;2023-05-07T13:07:54;12.00;;;4.47;;
48881;SDS011;57063;51.406;-2.402;2023-05-07T13:12:45;18.53;;;4.77;;
48881;SDS011;57063;51.406;-2.402;2023-05-07T13:15:10;7.10;;;3.70;;
48881;SDS011;57063;51.406;-2.402;2023-05-07T13:17:35;8.73;;;4.00;;
48881;SDS011;57063;51.406;-2.402;2023-05-07T13:20:01;8.53;;;3.17;;
48881;SDS011;57063;51.406;-2.402;2023-05-07T13:22:26;7.13;;;2.97;;
48881;SDS011;57063;51.406;-2.402;2023-05-07T13:24:51;8.17;;;3.13;;
48881;SDS011;57063;51.406;-2.402;2023-05-07T13:27:16;9.83;;;3.93;;
48881;SDS011;57063;51.406;-2.402;2023-05-07T13:29:41;9.60;;;2.97;;
48881;SDS011;57063;51.406;-2.402;2023-05-07T13:32:07;6.83;;;3.23;;
48881;SDS011;57063;51.406;-2.402;2023-05-07T13:34:32;9.93;;;2.73;;
48881;SDS011;57063;51.406;-2.402;2023-05-07T13:36:57;8.43;;;2.30;;
48881;SDS011;57063;51.406;-2.402;2023-05-07T13:39:22;6.80;;;2.13;;
48881;SDS011;57063;51.406;-2.402;2023-05-07T13:41:47;8.17;;;2.77;;
48881;SDS011;57063;51.406;-2.402;2023-05-07T13:44:13;8.03;;;2.27;;
48881;SDS011;57063;51.406;-2.402;2023-05-07T13:46:38;6.47;;;1.80;;
48881;SDS011;57063;51.406;-2.402;2023-05-07T13:49:03;4.90;;;1.40;;
48881;SDS011;57063;51.406;-2.402;2023-05-07T13:51:28;6.38;;;2.45;;
48881;SDS011;57063;51.406;-2.402;2023-05-07T13:53:53;9.40;;;1.90;;
48881;SDS011;57063;51.406;-2.402;2023-05-07T13:56:19;9.27;;;1.90;;
48881;SDS011;57063;51.406;-2.402;2023-05-07T13:58:45;7.70;;;1.85;;
48881;SDS011;57063;51.406;-2.402;2023-05-07T14:01:10;8.53;;;1.70;;
48881;SDS011;57063;51.406;-2.402;2023-05-07T14:03:35;5.97;;;2.40;;
48881;SDS011;57063;51.406;-2.402;2023-05-07T14:06:02;7.22;;;1.75;;
48881;SDS011;57063;51.406;-2.402;2023-05-07T14:08:28;4.45;;;1.02;;
48881;SDS011;57063;51.406;-2.402;2023-05-07T14:10:53;9.37;;;2.27;;
48881;SDS011;57063;51.406;-2.402;2023-05-07T14:13:18;4.90;;;1.70;;
48881;SDS011;57063;51.406;-2.402;2023-05-07T14:15:43;4.72;;;1.65;;
48881;SDS011;57063;51.406;-2.402;2023-05-07T14:18:11;9.30;;;1.75;;
48881;SDS011;57063;51.406;-2.402;2023-05-07T14:20:36;7.20;;;2.45;;
48881;SDS011;57063;51.406;-2.402;2023-05-07T14:23:02;5.35;;;1.67;;
48881;SDS011;57063;51.406;-2.402;2023-05-07T14:25:28;5.07;;;1.50;;
48881;SDS011;57063;51.406;-2.402;2023-05-07T14:27:53;7.55;;;1.75;;
48881;SDS011;57063;51.406;-2.402;2023-05-07T14:30:18;6.10;;;1.87;;
48881;SDS011;57063;51.406;-2.402;2023-05-07T14:32:43;4.75;;;1.42;;
48881;SDS011;57063;51.406;-2.402;2023-05-07T14:35:08;9.98;;;1.77;;
48881;SDS011;57063;51.406;-2.402;2023-05-07T14:37:34;4.40;;;1.33;;